Time;durP1;ratioP1;P1;durP2;ratioP2;P2;SDS_P1;SDS_P2;PMS_P1;PMS_P2;Temp;Humidity;BMP_temperature;BMP_pressure;BME280_temperature;BME280_humidity;BME280_pressure;Samples;Min_cycle;Max_cycle;Signal;HPM_P1;HPM_P2
2022/06/20 00:01:07;;;;;;;18.47;16.63;;;14.60;1.00;;;;;;5141819;27;20754;-56
2022/06/20 00:03:42;;;;;;;17.97;16.00;;;14.50;1.00;;;;;;5133503;27;20519;-56
2022/06/20 00:06:13;;;;;;;16.83;15.17;;;14.50;1.00;;;;;;5140912;27;20930;-57
2022/06/20 00:08:40;;;;;;;15.93;14.60;;;14.50;1.00;;;;;;5138122;27;20486;-57
2022/06/20 00:11:12;;;;;;;15.93;14.20;;;14.50;1.00;;;;;;5140456;27;20462;-56
2022/06/20 00:13:41;;;;;;;16.50;15.00;;;14.50;1.00;;;;;;5141393;27;20456;-56
2022/06/20 00:16:14;;;;;;;16.90;15.23;;;14.50;1.00;;;;;;5140526;27;20503;-55
2022/06/20 00:18:46;;;;;;;15.50;14.00;;;14.40;1.00;;;;;;5140752;27;20483;-56
2022/06/20 00:21:17;;;;;;;15.73;14.33;;;14.50;1.00;;;;;;5140236;27;20465;-56
2022/06/20 00:23:44;;;;;;;20.30;14.67;;;14.50;1.00;;;;;;5140361;27;20487;-56
2022/06/20 00:26:11;;;;;;;15.37;13.80;;;14.40;1.00;;;;;;5139960;27;20490;-55
2022/06/20 00:28:38;;;;;;;15.07;13.67;;;14.50;1.00;;;;;;5139776;27;20733;-55
2022/06/20 00:31:08;;;;;;;14.70;13.20;;;14.50;1.00;;;;;;5139418;27;20895;-56
2022/06/20 00:33:35;;;;;;;15.47;12.40;;;14.60;1.00;;;;;;5140795;27;20450;-56
2022/06/20 00:36:06;;;;;;;15.60;12.33;;;14.60;1.00;;;;;;5140610;27;20727;-55
2022/06/20 00:38:37;;;;;;;13.83;11.40;;;14.70;1.00;;;;;;5140587;27;20458;-57
2022/06/20 00:41:09;;;;;;;14.13;11.20;;;14.50;1.00;;;;;;5140827;27;20462;-54
2022/06/20 00:43:40;;;;;;;14.17;10.07;;;14.60;1.00;;;;;;5141446;27;20462;-56
2022/06/20 00:46:12;;;;;;;12.37;9.23;;;14.60;1.00;;;;;;5141212;27;20490;-55
2022/06/20 00:48:43;;;;;;;14.37;7.30;;;14.60;1.00;;;;;;5140948;27;20459;-56
2022/06/20 00:51:19;;;;;;;10.33;8.00;;;14.60;1.00;;;;;;5141184;27;20504;-55
2022/06/20 00:53:50;;;;;;;9.67;8.20;;;14.50;1.00;;;;;;5141000;27;20463;-55
2022/06/20 00:56:24;;;;;;;10.70;8.47;;;14.50;1.00;;;;;;5140625;27;20785;-56
2022/06/20 00:59:00;;;;;;;10.73;7.53;;;14.50;1.00;;;;;;5140646;27;20459;-56
2022/06/20 01:01:33;;;;;;;12.60;8.27;;;14.40;1.00;;;;;;5140935;27;20906;-56
2022/06/20 01:04:08;;;;;;;8.80;7.90;;;14.50;1.00;;;;;;5140901;27;20462;-56
2022/06/20 01:06:43;;;;;;;15.40;9.10;;;14.50;1.00;;;;;;5139878;27;20580;-56
2022/06/20 01:09:11;;;;;;;11.20;8.20;;;14.50;1.00;;;;;;5140829;27;20439;-56
2022/06/20 01:11:49;;;;;;;12.47;8.80;;;14.50;1.00;;;;;;5140595;27;20458;-56
2022/06/20 01:14:22;;;;;;;10.90;8.67;;;14.50;1.00;;;;;;5140474;27;20494;-56
2022/06/20 01:16:53;;;;;;;13.67;9.73;;;14.50;1.00;;;;;;5140381;27;20792;-54
2022/06/20 01:19:41;;;;;;;10.37;8.70;;;14.40;1.00;;;;;;5140798;27;20511;-56
2022/06/20 01:22:26;;;;;;;10.40;8.93;;;14.40;1.00;;;;;;5139633;27;20456;-56
2022/06/20 01:25:13;;;;;;;10.53;9.33;;;14.40;1.00;;;;;;5140277;27;20795;-56
2022/06/20 01:27:46;;;;;;;16.07;9.30;;;14.40;1.00;;;;;;5140676;27;20462;-54
2022/06/20 01:30:14;;;;;;;9.77;8.70;;;14.40;45.80;;;;;;5140306;27;20433;-56
2022/06/20 01:32:43;;;;;;;12.57;11.20;;;14.50;99.90;;;;;;5138910;27;20440;-54
2022/06/20 01:37:23;;;;;;;12.47;10.53;;;14.50;99.90;;;;;;5139988;27;20459;-56
2022/06/20 01:38:07;;;;;;;15.33;9.87;;;14.50;99.90;;;;;;5139903;27;20790;-58
2022/06/20 01:40:36;;;;;;;16.67;11.20;;;14.50;1.00;;;;;;5140214;27;20459;-59
2022/06/20 01:46:30;;;;;;;13.03;9.47;;;14.50;39.50;;;;;;5139289;27;20481;-57
2022/06/20 01:49:03;;;;;;;12.30;10.03;;;14.40;1.00;;;;;;5139974;27;20553;-57
2022/06/20 01:51:33;;;;;;;13.40;10.90;;;14.40;99.90;;;;;;5140123;27;20455;-57
2022/06/20 01:54:02;;;;;;;15.07;11.30;;;14.50;1.00;;;;;;5139751;27;20496;-53
2022/06/20 01:56:29;;;;;;;13.70;10.90;;;14.50;1.00;;;;;;5139520;27;20902;-56
2022/06/20 01:59:01;;;;;;;13.17;10.67;;;14.40;99.90;;;;;;5139473;27;20469;-55
2022/06/20 02:01:33;;;;;;;16.23;12.07;;;14.40;99.90;;;;;;5139650;27;20433;-54
2022/06/20 02:04:02;;;;;;;14.13;12.30;;;14.50;1.00;;;;;;5139000;27;20557;-58
2022/06/20 02:06:30;;;;;;;18.93;11.40;;;14.50;99.90;;;;;;5138988;27;20490;-57
2022/06/20 02:09:01;;;;;;;19.03;11.30;;;14.50;1.00;;;;;;5139545;27;20446;-56
2022/06/20 02:11:32;;;;;;;14.60;12.60;;;14.50;99.90;;;;;;5139531;27;20455;-53
2022/06/20 02:14:04;;;;;;;14.77;13.40;;;14.50;1.00;;;;;;5139723;27;20454;-56
2022/06/20 02:16:36;;;;;;;13.00;11.60;;;14.60;1.00;;;;;;5138642;27;20878;-58
2022/06/20 02:19:08;;;;;;;14.40;12.90;;;14.50;1.00;;;;;;5139733;27;20429;-54
2022/06/20 02:21:37;;;;;;;17.80;12.73;;;14.50;21.60;;;;;;5139916;27;20432;-56
2022/06/20 02:24:08;;;;;;;13.53;11.37;;;14.50;99.90;;;;;;5138937;27;20517;-56
2022/06/20 02:26:42;;;;;;;17.23;12.93;;;14.50;99.90;;;;;;5139680;27;20527;-56
2022/06/20 02:29:21;;;;;;;12.93;10.80;;;14.40;99.90;;;;;;5139575;27;20522;-56
2022/06/20 02:31:53;;;;;;;14.80;12.37;;;14.40;99.90;;;;;;5139899;27;20479;-56
2022/06/20 02:34:21;;;;;;;17.53;12.57;;;14.30;99.90;;;;;;5139542;27;20463;-54
2022/06/20 02:36:50;;;;;;;17.00;14.47;;;14.20;99.90;;;;;;5138231;27;20458;-56
2022/06/20 02:39:18;;;;;;;17.10;12.90;;;14.10;99.90;;;;;;5138807;27;20501;-55
2022/06/20 02:41:50;;;;;;;15.83;14.00;;;14.10;99.90;;;;;;5138942;27;20467;-56
2022/06/20 02:44:20;;;;;;;15.33;13.73;;;14.00;99.90;;;;;;5138605;27;20885;-57
2022/06/20 02:46:50;;;;;;;15.47;13.97;;;14.00;99.90;;;;;;5138778;27;20465;-55
2022/06/20 02:49:20;;;;;;;13.47;12.37;;;13.90;99.90;;;;;;5138599;27;20438;-56
2022/06/20 02:51:51;;;;;;;14.67;13.37;;;13.80;99.90;;;;;;5139123;27;20459;-55
2022/06/20 02:54:23;;;;;;;13.57;12.27;;;13.80;99.90;;;;;;5138771;27;20818;-54
2022/06/20 02:56:58;;;;;;;13.30;12.03;;;13.70;99.90;;;;;;5138771;27;20454;-55
2022/06/20 02:59:29;;;;;;;12.70;11.50;;;13.60;99.90;;;;;;5138606;27;20462;-56
2022/06/20 03:02:02;;;;;;;14.50;13.20;;;13.50;99.90;;;;;;5138625;27;20444;-58
2022/06/20 03:04:32;;;;;;;13.87;12.53;;;13.50;99.90;;;;;;5138645;27;20463;-55
2022/06/20 03:07:04;;;;;;;14.03;12.73;;;13.40;99.90;;;;;;5138516;27;20581;-58
2022/06/20 03:09:38;;;;;;;14.87;13.33;;;13.40;99.90;;;;;;5138347;27;20455;-56
2022/06/20 03:12:09;;;;;;;14.70;13.50;;;13.20;99.90;;;;;;5138341;27;20556;-55
2022/06/20 03:14:41;;;;;;;17.40;15.87;;;13.20;99.90;;;;;;5138455;27;20462;-58
2022/06/20 03:17:10;;;;;;;19.40;17.60;;;13.10;99.90;;;;;;5138184;27;20463;-56
2022/06/20 03:19:43;;;;;;;23.33;21.20;;;13.10;99.90;;;;;;5137728;27;20459;-58
2022/06/20 03:22:15;;;;;;;23.33;20.40;;;13.10;99.90;;;;;;5137832;27;20515;-54
2022/06/20 03:24:43;;;;;;;23.10;20.97;;;13.10;99.90;;;;;;5137287;27;20462;-56
2022/06/20 03:27:21;;;;;;;22.30;20.20;;;13.00;99.90;;;;;;5136802;28;20512;-56
2022/06/20 03:29:54;;;;;;;21.37;19.47;;;13.00;99.90;;;;;;5144218;27;20462;-55
2022/06/20 03:32:25;;;;;;;22.87;20.77;;;13.00;99.90;;;;;;5143874;27;20469;-56
2022/06/20 03:34:53;;;;;;;22.43;20.13;;;13.00;99.90;;;;;;5145178;27;20457;-56
2022/06/20 03:37:20;;;;;;;23.30;21.00;;;12.90;99.90;;;;;;5144889;27;20909;-55
2022/06/20 03:39:51;;;;;;;21.57;19.63;;;12.90;99.90;;;;;;5144512;27;20433;-55
2022/06/20 03:42:19;;;;;;;25.07;22.57;;;12.90;99.90;;;;;;5144630;27;20458;-56
2022/06/20 03:44:53;;;;;;;25.27;22.90;;;12.90;99.90;;;;;;5144852;27;20750;-57
2022/06/20 03:47:26;;;;;;;26.03;23.40;;;12.90;99.90;;;;;;5144475;27;20536;-55
2022/06/20 03:49:59;;;;;;;31.17;28.07;;;12.80;99.90;;;;;;5144979;27;20465;-54
2022/06/20 03:52:30;;;;;;;32.43;29.30;;;12.80;99.90;;;;;;5144872;27;20826;-55
2022/06/20 03:55:04;;;;;;;36.90;33.17;;;12.80;99.90;;;;;;5144975;27;20460;-53
2022/06/20 03:57:37;;;;;;;34.50;31.07;;;12.80;99.90;;;;;;5144269;27;20459;-55
2022/06/20 04:00:13;;;;;;;33.80;30.47;;;12.80;99.90;;;;;;5144706;27;20481;-55
2022/06/20 04:02:48;;;;;;;30.03;26.90;;;12.90;99.90;;;;;;5145077;27;20458;-55
2022/06/20 04:05:24;;;;;;;30.40;26.20;;;12.90;99.90;;;;;;5144615;27;20878;-56
2022/06/20 04:07:58;;;;;;;26.73;24.03;;;12.80;99.90;;;;;;5144790;27;20816;-53
2022/06/20 04:13:23;;;;;;;25.23;22.63;;;12.90;99.90;;;;;;5144165;27;20868;-55
2022/06/20 04:15:54;;;;;;;24.93;22.40;;;12.90;99.90;;;;;;5144523;27;20462;-57
2022/06/20 04:18:29;;;;;;;28.07;25.30;;;12.80;99.90;;;;;;5145082;27;20811;-56
2022/06/20 04:21:09;;;;;;;28.40;25.37;;;12.80;99.90;;;;;;5144829;27;20454;-56
2022/06/20 04:23:42;;;;;;;25.70;23.40;;;12.80;99.90;;;;;;5144136;27;20482;-56
2022/06/20 04:26:15;;;;;;;22.50;20.17;;;12.90;99.90;;;;;;5144829;27;20544;-56
2022/06/20 04:28:49;;;;;;;22.70;20.70;;;12.80;99.90;;;;;;5144283;27;20481;-53
2022/06/20 04:31:21;;;;;;;23.00;20.90;;;12.90;99.90;;;;;;5144826;27;20907;-56
2022/06/20 04:33:55;;;;;;;21.80;19.80;;;12.90;99.90;;;;;;5144554;27;20497;-53
2022/06/20 04:36:33;;;;;;;22.00;20.00;;;13.00;99.90;;;;;;5144511;27;20453;-54
2022/06/20 04:39:10;;;;;;;22.03;20.13;;;13.20;99.90;;;;;;5144258;27;20515;-55
2022/06/20 04:41:45;;;;;;;21.50;19.40;;;13.10;99.90;;;;;;5140530;27;20462;-55
2022/06/20 04:44:19;;;;;;;22.17;18.70;;;13.20;99.90;;;;;;5140330;27;20465;-51
2022/06/20 04:46:52;;;;;;;18.83;17.10;;;13.40;99.90;;;;;;5141312;27;20584;-55
2022/06/20 04:49:20;;;;;;;18.70;16.83;;;13.40;99.90;;;;;;5140864;27;20883;-54
2022/06/20 04:51:50;;;;;;;18.77;16.93;;;13.50;99.90;;;;;;5140787;27;20462;-55
2022/06/20 04:54:22;;;;;;;19.57;17.77;;;13.40;99.90;;;;;;5140266;27;20467;-53
2022/06/20 04:56:53;;;;;;;18.80;16.87;;;13.50;99.90;;;;;;5133327;27;20458;-54
2022/06/20 04:59:26;;;;;;;18.17;16.37;;;13.50;99.90;;;;;;5127369;27;20471;-54
2022/06/20 05:01:57;;;;;;;16.57;15.07;;;13.50;99.90;;;;;;5118686;27;20450;-55
2022/06/20 05:04:31;;;;;;;17.10;15.50;;;13.40;99.90;;;;;;5133906;27;20474;-55
2022/06/20 05:07:01;;;;;;;16.60;15.00;;;13.50;99.90;;;;;;5140710;27;20749;-54
2022/06/20 05:09:36;;;;;;;17.23;15.53;;;13.60;99.90;;;;;;5131236;27;20562;-55
2022/06/20 05:12:09;;;;;;;16.70;15.23;;;13.40;99.90;;;;;;5123991;27;20470;-55
2022/06/20 05:14:44;;;;;;;19.80;14.13;;;13.30;99.90;;;;;;5121575;27;20478;-56
2022/06/20 05:17:18;;;;;;;16.97;15.27;;;13.20;99.90;;;;;;5123375;27;20904;-56
2022/06/20 05:19:52;;;;;;;16.70;15.00;;;13.30;99.90;;;;;;5120474;27;20472;-55
2022/06/20 05:22:26;;;;;;;16.30;14.60;;;13.40;99.90;;;;;;5123659;27;20495;-54
2022/06/20 05:24:56;;;;;;;16.87;15.07;;;13.20;99.90;;;;;;5131394;27;20445;-53
2022/06/20 05:27:33;;;;;;;16.37;14.50;;;13.20;99.90;;;;;;5137587;27;20487;-55
2022/06/20 05:30:09;;;;;;;17.80;13.23;;;13.40;99.90;;;;;;5131601;27;20451;-55
2022/06/20 05:32:41;;;;;;;18.00;13.17;;;13.20;99.90;;;;;;5129483;27;20473;-53
2022/06/20 05:35:22;;;;;;;15.23;13.60;;;13.30;99.90;;;;;;5136627;27;20458;-58
2022/06/20 05:37:53;;;;;;;13.37;12.10;;;13.40;99.90;;;;;;5139914;27;20461;-58
2022/06/20 05:40:27;;;;;;;11.80;10.60;;;13.40;99.90;;;;;;5139959;27;20736;-57
2022/06/20 05:42:54;;;;;;;12.73;9.67;;;13.30;99.90;;;;;;5139872;27;20461;-57
2022/06/20 05:45:27;;;;;;;10.57;8.80;;;13.10;99.90;;;;;;5139903;27;20459;-57
2022/06/20 05:47:58;;;;;;;9.33;8.43;;;13.00;99.90;;;;;;5123362;27;20540;-57
2022/06/20 05:50:44;;;;;;;8.67;7.87;;;13.10;99.90;;;;;;5119610;28;20481;-57
2022/06/20 05:53:24;;;;;;;11.43;8.00;;;13.10;99.90;;;;;;5118073;28;20466;-57
2022/06/20 05:55:54;;;;;;;10.63;7.13;;;13.00;99.90;;;;;;5119169;28;20486;-57
2022/06/20 05:58:25;;;;;;;8.80;6.80;;;13.10;99.90;;;;;;5119278;28;20455;-58
2022/06/20 06:00:55;;;;;;;10.90;7.60;;;13.10;99.90;;;;;;5121694;27;20618;-57
2022/06/20 06:03:26;;;;;;;7.63;6.17;;;13.10;99.90;;;;;;5139292;27;20895;-55
2022/06/20 06:06:01;;;;;;;11.70;6.87;;;13.00;99.90;;;;;;5139397;27;20465;-58
2022/06/20 06:08:36;;;;;;;7.27;5.90;;;13.10;99.90;;;;;;5139516;27;20580;-57
2022/06/20 06:11:14;;;;;;;7.67;6.33;;;13.10;99.90;;;;;;5139254;27;20469;-57
2022/06/20 06:13:50;;;;;;;8.77;7.17;;;12.90;99.90;;;;;;5138364;27;20490;-58
2022/06/20 06:19:18;;;;;;;11.20;7.57;;;13.10;99.90;;;;;;5138686;27;20731;-56
2022/06/20 06:21:50;;;;;;;8.00;6.40;;;13.10;99.90;;;;;;5139307;27;20462;-57
2022/06/20 06:24:24;;;;;;;9.67;6.60;;;12.90;99.90;;;;;;5139014;27;20469;-57
2022/06/20 06:26:53;;;;;;;7.93;6.30;;;13.20;99.90;;;;;;5139207;27;20525;-57
2022/06/20 06:29:26;;;;;;;9.17;7.57;;;13.10;99.90;;;;;;5138100;27;20899;-57
2022/06/20 06:31:58;;;;;;;11.40;7.10;;;13.30;99.90;;;;;;5137238;27;20976;-56
2022/06/20 06:34:31;;;;;;;7.87;5.90;;;13.40;99.90;;;;;;5137748;27;20528;-56
2022/06/20 06:37:04;;;;;;;11.30;6.33;;;13.40;99.90;;;;;;5137735;27;20753;-57
2022/06/20 06:39:37;;;;;;;8.83;6.03;;;13.20;99.90;;;;;;5136846;27;20465;-58
2022/06/20 06:42:09;;;;;;;10.40;6.10;;;13.30;99.90;;;;;;5137996;27;20836;-58
2022/06/20 06:44:39;;;;;;;12.90;6.97;;;13.00;99.90;;;;;;5138817;27;20466;-58
2022/06/20 06:47:14;;;;;;;7.97;5.20;;;12.90;99.90;;;;;;5138026;27;20469;-57
2022/06/20 06:49:45;;;;;;;7.23;6.20;;;12.90;99.90;;;;;;5138125;27;20518;-58
2022/06/20 06:52:21;;;;;;;9.57;6.20;;;12.90;99.90;;;;;;5138610;27;20462;-57
2022/06/20 06:54:59;;;;;;;12.40;7.80;;;12.90;99.90;;;;;;5137634;27;20619;-57
2022/06/20 06:57:32;;;;;;;8.47;5.77;;;13.00;99.90;;;;;;5137219;27;20549;-57
2022/06/20 07:00:24;;;;;;;9.47;4.87;;;13.00;99.90;;;;;;5138076;27;20458;-57
2022/06/20 07:02:57;;;;;;;5.10;4.40;;;12.90;99.90;;;;;;5137226;27;20541;-56
2022/06/20 07:05:30;;;;;;;6.70;5.07;;;13.00;99.90;;;;;;5138010;27;20891;-57
2022/06/20 07:08:04;;;;;;;6.57;4.20;;;13.10;99.90;;;;;;5138371;27;20497;-58
2022/06/20 07:10:41;;;;;;;7.93;5.20;;;13.20;99.90;;;;;;5138574;27;20465;-59
2022/06/20 07:13:19;;;;;;;12.97;4.73;;;13.30;99.90;;;;;;5138416;27;20823;-58
2022/06/20 07:15:51;;;;;;;7.43;4.37;;;13.30;99.90;;;;;;5137024;27;20474;-58
2022/06/20 07:18:34;;;;;;;9.60;5.07;;;13.50;99.90;;;;;;5117137;28;20802;-58
2022/06/20 07:21:02;;;;;;;6.47;4.20;;;13.70;99.90;;;;;;5124736;27;20466;-57
2022/06/20 07:23:30;;;;;;;7.73;4.73;;;14.00;99.90;;;;;;5136340;27;20490;-58
2022/06/20 07:25:59;;;;;;;5.70;4.67;;;14.20;99.90;;;;;;5138035;28;20451;-58
2022/06/20 07:28:37;;;;;;;5.90;4.50;;;14.30;99.90;;;;;;5132728;28;20493;-59
2022/06/20 07:31:10;;;;;;;7.53;4.60;;;14.30;99.90;;;;;;5137685;28;20467;-58
2022/06/20 07:33:43;;;;;;;9.30;5.03;;;14.20;99.90;;;;;;5137523;28;20458;-58
2022/06/20 07:36:15;;;;;;;8.50;5.10;;;14.30;99.90;;;;;;5134369;28;20490;-58
2022/06/20 07:38:51;;;;;;;7.37;5.77;;;14.30;99.90;;;;;;5129136;28;20735;-58
2022/06/20 07:41:22;;;;;;;7.23;5.43;;;14.40;99.90;;;;;;5127325;28;20737;-58
2022/06/20 07:43:57;;;;;;;9.10;5.77;;;14.50;99.90;;;;;;5118026;28;20893;-58
2022/06/20 07:46:36;;;;;;;7.97;5.90;;;14.50;99.90;;;;;;5125858;28;20773;-57
2022/06/20 07:49:10;;;;;;;7.17;5.27;;;14.60;99.90;;;;;;5116658;28;20492;-57
2022/06/20 07:51:43;;;;;;;9.33;6.00;;;14.60;99.90;;;;;;5117517;28;20456;-57
2022/06/20 07:54:20;;;;;;;9.50;6.77;;;14.70;99.90;;;;;;5126950;28;20465;-57
2022/06/20 07:56:51;;;;;;;7.07;6.30;;;15.00;99.90;;;;;;5131382;28;20455;-57
2022/06/20 07:59:23;;;;;;;10.83;6.80;;;15.30;99.90;;;;;;5116675;28;20486;-58
2022/06/20 08:01:59;;;;;;;11.30;7.30;;;15.50;99.90;;;;;;5129366;28;20473;-57
2022/06/20 08:04:33;;;;;;;10.33;5.77;;;15.50;99.90;;;;;;5137583;28;20461;-57
2022/06/20 08:07:05;;;;;;;11.27;5.67;;;14.90;99.90;;;;;;5137701;27;20758;-58
2022/06/20 08:09:45;;;;;;;11.30;5.47;;;14.80;99.90;;;;;;5129787;27;20455;-58
2022/06/20 08:12:21;;;;;;;7.20;5.40;;;14.50;1.00;;;;;;5118154;28;20481;-58
2022/06/20 08:14:55;;;;;;;8.10;5.10;;;14.60;1.00;;;;;;5117980;28;20463;-57
2022/06/20 08:17:23;;;;;;;9.10;4.70;;;14.60;1.00;;;;;;5121103;28;20569;-57
2022/06/20 08:19:51;;;;;;;7.53;4.10;;;14.60;99.90;;;;;;5123287;27;20470;-57
2022/06/20 08:22:25;;;;;;;11.90;4.53;;;14.70;1.00;;;;;;5123814;27;20504;-58
2022/06/20 08:24:59;;;;;;;6.17;3.63;;;14.60;99.90;;;;;;5139655;27;20459;-58
2022/06/20 08:27:37;;;;;;;5.57;3.60;;;14.70;99.90;;;;;;5141576;27;20509;-60
2022/06/20 08:30:11;;;;;;;11.20;5.17;;;15.50;99.90;;;;;;5127553;27;20594;-59
2022/06/20 08:32:52;;;;;;;6.70;4.07;;;15.90;99.90;;;;;;5141590;27;20469;-59
2022/06/20 08:35:27;;;;;;;9.53;4.57;;;15.20;1.00;;;;;;5140670;27;20930;-59
2022/06/20 08:37:59;;;;;;;9.87;3.97;;;15.10;1.00;;;;;;5140416;27;20897;-59
2022/06/20 08:40:51;;;;;;;12.07;4.57;;;15.40;13.90;;;;;;5141348;27;20454;-59
2022/06/20 08:43:45;;;;;;;6.57;4.13;;;15.90;1.00;;;;;;5120733;27;20867;-61
2022/06/20 08:46:38;;;;;;;11.20;4.97;;;15.70;1.00;;;;;;5134900;27;20462;-60
2022/06/20 08:49:54;;;;;;;8.17;4.10;;;16.20;1.00;;;;;;5140414;27;20490;-61
2022/06/20 08:52:59;;;;;;;5.17;3.63;;;16.50;1.00;;;;;;5104200;27;20454;-59
2022/06/20 08:56:02;;;;;;;6.50;3.90;;;16.80;1.00;;;;;;5140327;27;20450;-60
2022/06/20 08:58:45;;;;;;;9.37;4.70;;;16.80;99.90;;;;;;5140540;27;20447;-60
2022/06/20 09:01:31;;;;;;;6.73;5.03;;;16.90;1.00;;;;;;5140161;27;20455;-61
2022/06/20 09:04:22;;;;;;;10.60;4.67;;;17.50;1.00;;;;;;5140146;27;20462;-62
2022/06/20 09:07:17;;;;;;;7.13;3.80;;;18.60;1.00;;;;;;5140569;27;20458;-61
2022/06/20 09:10:26;;;;;;;11.33;5.30;;;18.70;99.90;;;;;;5140361;27;20450;-61
2022/06/20 09:13:11;;;;;;;6.33;3.80;;;18.10;99.90;;;;;;5140867;27;20458;-61
2022/06/20 09:15:50;;;;;;;7.27;4.20;;;17.10;99.90;;;;;;5140410;27;20465;-61
2022/06/20 09:18:31;;;;;;;7.97;4.17;;;17.10;99.90;;;;;;5140136;27;20433;-61
2022/06/20 09:21:03;;;;;;;7.30;4.87;;;17.10;99.90;;;;;;5139394;27;20465;-61
2022/06/20 09:23:44;;;;;;;4.93;4.00;;;17.00;99.90;;;;;;5140097;27;20490;-61
2022/06/20 09:26:21;;;;;;;7.20;4.50;;;16.90;99.90;;;;;;5139945;27;20463;-61
2022/06/20 09:29:24;;;;;;;8.20;4.77;;;16.70;99.90;;;;;;5140544;27;20490;-61
2022/06/20 09:32:21;;;;;;;7.30;5.40;;;16.50;99.90;;;;;;5139989;27;20459;-59
2022/06/20 09:35:24;;;;;;;12.60;5.10;;;17.00;99.90;;;;;;5137194;27;20462;-61
2022/06/20 09:38:34;;;;;;;10.97;5.77;;;17.30;99.90;;;;;;5138703;27;20798;-59
2022/06/20 09:41:15;;;;;;;6.40;5.27;;;18.30;99.90;;;;;;5138561;27;20875;-60
2022/06/20 09:43:52;;;;;;;7.50;4.37;;;19.50;99.90;;;;;;5139500;27;20454;-60
2022/06/20 09:46:37;;;;;;;6.23;4.57;;;19.60;99.90;;;;;;5138878;27;20528;-61
2022/06/20 09:49:15;;;;;;;8.63;4.50;;;20.10;99.90;;;;;;5139203;27;20547;-59
2022/06/20 09:51:53;;;;;;;6.50;4.70;;;20.60;99.90;;;;;;5135926;27;20438;-60
2022/06/20 09:54:31;;;;;;;7.00;5.60;;;21.30;99.90;;;;;;5128935;27;20459;-60
2022/06/20 09:57:11;;;;;;;7.03;4.60;;;21.90;99.90;;;;;;5125783;27;20524;-60
2022/06/20 09:59:47;;;;;;;8.10;4.07;;;21.40;99.90;;;;;;5134282;27;20883;-60
2022/06/20 10:02:26;;;;;;;5.43;4.20;;;19.80;99.90;;;;;;5130056;27;20466;-59
2022/06/20 10:05:02;;;;;;;4.97;4.40;;;19.40;99.90;;;;;;5118968;28;20463;-60
2022/06/20 10:07:40;;;;;;;8.07;3.90;;;20.10;99.90;;;;;;5134416;27;20882;-58
2022/06/20 10:10:19;;;;;;;6.50;4.40;;;20.60;99.90;;;;;;5131089;27;20556;-60
2022/06/20 10:12:55;;;;;;;7.10;3.73;;;21.40;99.90;;;;;;5128032;27;22283;-60
2022/06/20 10:15:30;;;;;;;11.70;4.70;;;20.40;99.90;;;;;;5128503;27;20512;-60
2022/06/20 10:18:05;;;;;;;6.97;3.77;;;20.50;99.90;;;;;;5121205;27;20907;-59
2022/06/20 10:20:40;;;;;;;8.47;3.50;;;20.40;99.90;;;;;;5129498;27;22104;-60
2022/06/20 10:23:43;;;;;;;4.37;3.17;;;20.50;99.90;;;;;;5125380;27;20500;-59
2022/06/20 10:26:23;;;;;;;6.37;4.40;;;19.60;99.90;;;;;;5122028;27;20459;-58
2022/06/20 10:28:54;;;;;;;6.53;3.00;;;20.00;99.90;;;;;;5134332;27;20464;-58
2022/06/20 10:31:38;;;;;;;6.13;4.20;;;19.10;99.90;;;;;;5138769;27;20463;-61
2022/06/20 10:34:10;;;;;;;6.77;4.27;;;19.90;99.90;;;;;;5132356;27;20465;-59
2022/06/20 10:36:51;;;;;;;4.50;3.57;;;20.80;99.90;;;;;;5124830;27;20808;-58
2022/06/20 10:39:29;;;;;;;6.87;4.23;;;21.00;99.90;;;;;;5120517;27;20460;-57
2022/06/20 10:42:16;;;;;;;6.13;4.10;;;21.10;99.90;;;;;;5117100;27;20986;-58
2022/06/20 10:44:57;;;;;;;5.60;3.13;;;20.50;99.90;;;;;;5127147;27;20470;-60
2022/06/20 10:47:31;;;;;;;4.73;3.70;;;19.20;99.90;;;;;;5126057;27;20446;-59
2022/06/20 10:50:19;;;;;;;5.10;3.80;;;18.80;99.90;;;;;;5117241;28;20470;-59
2022/06/20 10:52:58;;;;;;;4.93;3.70;;;18.70;99.90;;;;;;5116725;28;20466;-58
2022/06/20 10:55:40;;;;;;;4.13;3.53;;;18.50;99.90;;;;;;5118410;27;20460;-59
2022/06/20 10:58:25;;;;;;;5.50;3.07;;;18.50;99.90;;;;;;5117833;28;20956;-59
2022/06/20 11:01:00;;;;;;;7.03;3.30;;;19.50;99.90;;;;;;5120525;27;20935;-59
2022/06/20 11:04:06;;;;;;;4.63;3.30;;;20.60;99.90;;;;;;5118276;28;20505;-58
2022/06/20 11:06:48;;;;;;;3.97;3.60;;;21.20;99.90;;;;;;5057725;28;20772;-59
2022/06/20 11:09:24;;;;;;;6.73;3.30;;;21.60;99.90;;;;;;5116677;28;20586;-59
2022/06/20 11:12:00;;;;;;;4.70;2.87;;;22.10;99.90;;;;;;5117640;28;20469;-59
2022/06/20 11:14:36;;;;;;;4.90;2.70;;;21.70;99.90;;;;;;5117843;28;20745;-59
2022/06/20 11:17:11;;;;;;;5.47;2.57;;;21.30;99.90;;;;;;5115810;28;20459;-59
2022/06/20 11:19:48;;;;;;;6.03;3.17;;;20.20;99.90;;;;;;5124025;27;20467;-58
2022/06/20 11:22:37;;;;;;;2.80;2.60;;;20.20;99.90;;;;;;5134655;27;20497;-60
2022/06/20 11:25:20;;;;;;;3.40;3.10;;;19.90;99.90;;;;;;5124049;27;20466;-60
2022/06/20 11:28:13;;;;;;;5.50;3.20;;;19.40;99.90;;;;;;5120725;27;20466;-60
2022/06/20 11:30:49;;;;;;;6.80;3.67;;;20.20;99.90;;;;;;5133452;28;20459;-58
2022/06/20 11:36:14;;;;;;;6.07;3.30;;;20.50;99.90;;;;;;5124209;27;20432;-58
2022/06/20 11:39:08;;;;;;;5.23;2.77;;;21.30;99.90;;;;;;5129243;28;20910;-58
2022/06/20 11:41:46;;;;;;;9.73;3.40;;;22.60;99.90;;;;;;5120341;28;20463;-57
2022/06/20 11:44:37;;;;;;;3.33;2.20;;;23.40;99.90;;;;;;5119468;28;20455;-58
2022/06/20 11:47:25;;;;;;;3.90;2.67;;;22.60;99.90;;;;;;5121210;28;20458;-56
2022/06/20 11:50:23;;;;;;;5.23;3.17;;;22.10;99.90;;;;;;5124183;28;20522;-56
2022/06/20 11:53:01;;;;;;;4.43;2.67;;;20.10;99.90;;;;;;5135721;27;20810;-57
2022/06/20 11:55:41;;;;;;;5.33;3.33;;;20.10;99.90;;;;;;5141858;27;20958;-60
2022/06/20 11:58:20;;;;;;;5.97;3.30;;;20.70;99.90;;;;;;5142081;27;20450;-56
2022/06/20 12:01:00;;;;;;;5.03;2.60;;;20.40;99.90;;;;;;5133306;27;20434;-59
2022/06/20 12:03:37;;;;;;;4.13;2.77;;;20.40;99.90;;;;;;5135137;27;20730;-57
2022/06/20 12:06:11;;;;;;;3.77;2.90;;;20.20;99.90;;;;;;5121191;28;20444;-57
2022/06/20 12:08:48;;;;;;;4.30;3.90;;;20.70;99.90;;;;;;5121156;28;20486;-58
2022/06/20 12:11:46;;;;;;;5.50;2.93;;;21.50;99.90;;;;;;5119795;28;20741;-58
2022/06/20 12:14:25;;;;;;;4.83;3.00;;;22.50;99.90;;;;;;5119596;28;20494;-58
2022/06/20 12:17:02;;;;;;;5.13;3.00;;;22.10;99.90;;;;;;5120737;28;20524;-59
2022/06/20 12:25:31;;;;;;;4.40;3.30;;;20.50;99.90;;;;;;5124523;27;20765;-57
2022/06/20 12:28:00;;;;;;;8.90;3.50;;;20.60;99.90;;;;;;5120700;28;20562;-59
2022/06/20 12:30:27;;;;;;;5.50;3.40;;;20.30;99.90;;;;;;5129021;27;20746;-58
2022/06/20 12:33:00;;;;;;;4.37;3.50;;;20.50;99.90;;;;;;5119094;28;20477;-58
2022/06/20 12:35:32;;;;;;;5.23;3.37;;;20.80;99.90;;;;;;5129599;27;20729;-59
2022/06/20 12:38:06;;;;;;;5.27;3.83;;;20.90;99.90;;;;;;5121180;27;20495;-58
2022/06/20 12:40:42;;;;;;;4.43;3.73;;;21.20;99.90;;;;;;5120199;28;20469;-57
2022/06/20 12:43:17;;;;;;;4.07;3.50;;;22.20;99.90;;;;;;5126899;27;20880;-60
2022/06/20 12:46:06;;;;;;;6.07;4.40;;;22.50;99.90;;;;;;5124721;27;20458;-57
2022/06/20 12:49:05;;;;;;;5.07;4.33;;;22.50;99.90;;;;;;5122197;27;20493;-58
2022/06/20 12:51:41;;;;;;;5.67;4.03;;;22.70;99.90;;;;;;5121288;27;20477;-57
2022/06/20 12:54:25;;;;;;;6.60;4.13;;;22.50;99.90;;;;;;5132224;27;20458;-57
2022/06/20 12:57:04;;;;;;;4.93;3.40;;;21.70;99.90;;;;;;5130064;27;20466;-58
2022/06/20 12:59:50;;;;;;;6.53;3.87;;;21.50;99.90;;;;;;5134511;27;20457;-58
2022/06/20 13:02:30;;;;;;;6.00;4.00;;;20.80;99.90;;;;;;5131985;27;20515;-58
2022/06/20 13:05:28;;;;;;;6.90;4.60;;;20.70;99.90;;;;;;5139401;27;20463;-59
2022/06/20 13:08:33;;;;;;;4.87;3.90;;;20.20;99.90;;;;;;5138842;27;20455;-57
2022/06/20 13:11:15;;;;;;;7.63;3.80;;;20.10;99.90;;;;;;5133708;27;20477;-57
2022/06/20 13:14:10;;;;;;;5.60;3.93;;;20.30;99.90;;;;;;5135021;27;20429;-57
2022/06/20 13:16:48;;;;;;;6.93;4.27;;;21.00;99.90;;;;;;5132018;27;20745;-58
2022/06/20 13:19:37;;;;;;;4.93;3.90;;;21.70;99.90;;;;;;5137825;27;20453;-60
2022/06/20 13:22:17;;;;;;;5.70;4.17;;;20.80;99.90;;;;;;5135294;27;20821;-57
2022/06/20 13:24:55;;;;;;;6.60;4.67;;;21.10;99.90;;;;;;5134356;27;20474;-57
2022/06/20 13:27:35;;;;;;;4.63;3.87;;;21.70;99.90;;;;;;5138364;27;20426;-59
2022/06/20 13:30:14;;;;;;;6.80;3.87;;;21.30;99.90;;;;;;5137617;27;20471;-55
2022/06/20 13:32:49;;;;;;;5.30;4.37;;;22.10;99.90;;;;;;5134304;27;20459;-56
2022/06/20 13:35:30;;;;;;;5.60;3.80;;;23.30;99.90;;;;;;5134902;27;20491;-58
2022/06/20 13:38:08;;;;;;;4.63;4.10;;;23.50;99.90;;;;;;5138994;27;20553;-57
2022/06/20 13:40:49;;;;;;;5.83;3.50;;;23.60;99.90;;;;;;5139461;27;20450;-57
2022/06/20 13:43:41;;;;;;;5.83;3.97;;;23.30;99.90;;;;;;5136284;27;20454;-58
2022/06/20 13:46:17;;;;;;;4.93;3.63;;;22.30;99.90;;;;;;5135626;27;20451;-58